Time;durP1;ratioP1;P1;durP2;ratioP2;P2;SDS_P1;SDS_P2;PMS_P1;PMS_P2;Temp;Humidity;BMP_temperature;BMP_pressure;BME280_temperature;BME280_humidity;BME280_pressure;Samples;Min_cycle;Max_cycle;Signal;HPM_P1;HPM_P2
2022/09/23 00:02:15;;;;;;;3.13;1.30;;;;;;;11.95;41.85;100775.75;10066427;29;20234;-83
2022/09/23 00:07:37;;;;;;;3.37;1.37;;;;;;;12.32;40.57;100770.53;10104260;29;20206;-83
2022/09/23 00:12:59;;;;;;;2.37;1.37;;;;;;;12.03;41.50;100776.06;10076851;29;20209;-83
2022/09/23 00:18:21;;;;;;;3.03;1.40;;;;;;;12.53;40.78;100759.31;10099278;29;20710;-84
2022/09/23 00:23:43;;;;;;;2.17;1.23;;;;;;;12.67;40.49;100755.09;10074299;29;20255;-84
2022/09/23 00:29:06;;;;;;;2.80;1.70;;;;;;;12.46;41.00;100747.72;10092036;29;20599;-84
2022/09/23 00:34:28;;;;;;;1.80;1.63;;;;;;;12.34;41.00;100751.22;10084782;29;20217;-85
2022/09/23 00:39:51;;;;;;;2.43;1.67;;;;;;;12.32;40.82;100747.91;10084193;29;20293;-85
2022/09/23 00:45:14;;;;;;;3.17;1.70;;;;;;;12.38;40.93;100749.44;10085068;29;20234;-85
2022/09/23 00:50:38;;;;;;;2.23;1.50;;;;;;;12.61;40.74;100742.34;10102984;29;20213;-83
2022/09/23 00:56:05;;;;;;;4.93;1.60;;;;;;;12.49;40.08;100739.41;10088273;29;20253;-84
2022/09/23 01:01:28;;;;;;;3.17;1.83;;;;;;;12.31;40.51;100729.28;10101865;29;20285;-85
2022/09/23 01:06:50;;;;;;;2.47;1.40;;;;;;;12.28;40.82;100738.44;10085739;29;20209;-84
2022/09/23 01:12:30;;;;;;;1.97;1.30;;;;;;;12.50;40.26;100737.41;10098406;29;20232;-84
2022/09/23 01:18:08;;;;;;;2.30;1.37;;;;;;;12.59;40.29;100729.72;10097484;29;20257;-84
2022/09/23 01:24:01;;;;;;;2.00;1.27;;;;;;;12.75;40.12;100721.50;10093675;29;20360;-84
2022/09/23 01:29:41;;;;;;;2.40;0.90;;;;;;;13.33;38.30;100710.13;10107827;29;21061;-85
2022/09/23 01:35:17;;;;;;;3.17;1.50;;;;;;;13.24;39.09;100715.03;10106949;29;20213;-85
2022/09/23 01:41:11;;;;;;;2.57;1.03;;;;;;;13.57;38.18;100714.25;10086547;29;20214;-84
2022/09/23 01:46:47;;;;;;;1.93;1.23;;;;;;;13.70;39.42;100713.13;10095467;29;20210;-86
2022/09/23 01:52:22;;;;;;;1.97;1.50;;;;;;;13.21;41.34;100709.22;10089836;29;20292;-84
2022/09/23 01:57:58;;;;;;;2.00;1.10;;;;;;;13.12;40.36;100703.59;10094714;29;20261;-85
2022/09/23 02:03:26;;;;;;;1.77;0.97;;;;;;;12.36;40.86;100703.72;10094330;29;20266;-83
2022/09/23 02:08:55;;;;;;;3.10;1.10;;;;;;;12.72;40.02;100700.38;10111367;29;20595;-85
2022/09/23 02:14:24;;;;;;;0.80;0.70;;;;;;;12.88;39.17;100692.13;10098728;29;20233;-85
2022/09/23 02:19:52;;;;;;;3.10;0.90;;;;;;;12.91;38.89;100685.75;10106009;29;20230;-85
2022/09/23 02:25:16;;;;;;;2.60;1.00;;;;;;;13.20;38.80;100690.56;10102316;29;20289;-85
2022/09/23 02:30:45;;;;;;;1.07;0.67;;;;;;;13.28;38.30;100690.53;10087943;29;20294;-84
2022/09/23 02:36:14;;;;;;;1.70;0.57;;;;;;;12.89;39.36;100682.47;10099717;29;20248;-84
2022/09/23 02:41:56;;;;;;;1.93;0.83;;;;;;;12.94;39.06;100677.41;10097695;29;20209;-85
2022/09/23 02:47:22;;;;;;;4.60;1.03;;;;;;;12.57;39.81;100670.66;10104628;29;20218;-83
2022/09/23 02:52:45;;;;;;;1.37;0.60;;;;;;;12.91;38.46;100661.13;10098202;29;20238;-85
2022/09/23 02:58:10;;;;;;;1.40;1.00;;;;;;;13.28;38.43;100661.38;10107044;29;20213;-85
2022/09/23 03:03:41;;;;;;;2.03;0.80;;;;;;;13.16;38.42;100655.63;10106106;29;20206;-84
2022/09/23 03:09:16;;;;;;;1.43;0.70;;;;;;;13.16;38.64;100642.28;10087138;29;20673;-85
2022/09/23 03:14:55;;;;;;;0.63;0.63;;;;;;;13.07;38.89;100637.88;10096151;29;20230;-83
2022/09/23 03:20:33;;;;;;;5.30;1.07;;;;;;;12.31;39.87;100633.19;10079998;29;20264;-85
2022/09/23 03:25:57;;;;;;;1.10;0.70;;;;;;;12.59;39.43;100623.09;10098843;29;20759;-84
2022/09/23 03:31:19;;;;;;;1.33;0.63;;;;;;;12.60;38.82;100630.41;10096026;29;20202;-84
2022/09/23 03:37:02;;;;;;;0.93;0.70;;;;;;;12.42;39.57;100634.50;10103416;29;20595;-84
2022/09/23 03:42:26;;;;;;;3.30;0.50;;;;;;;12.86;38.66;100637.88;10081039;29;20213;-85
2022/09/23 03:47:48;;;;;;;2.63;0.87;;;;;;;13.25;37.72;100631.75;10078803;29;20205;-83
2022/09/23 03:53:13;;;;;;;2.47;0.60;;;;;;;13.64;37.19;100629.56;10102804;29;20209;-85
2022/09/23 03:58:35;;;;;;;2.03;0.80;;;;;;;12.75;38.60;100620.50;10099621;29;20628;-84
2022/09/23 04:03:57;;;;;;;1.70;0.80;;;;;;;12.75;38.62;100608.34;10094087;29;20324;-79
2022/09/23 04:09:20;;;;;;;1.10;0.50;;;;;;;12.97;38.57;100602.34;10112825;29;20225;-83
2022/09/23 04:14:42;;;;;;;2.83;1.07;;;;;;;13.31;38.54;100607.72;10101020;29;20309;-81
2022/09/23 04:20:05;;;;;;;1.17;0.67;;;;;;;13.46;38.88;100606.25;10123268;29;20403;-81
2022/09/23 04:25:27;;;;;;;3.30;0.73;;;;;;;13.52;38.54;100606.88;10095733;29;20391;-83
2022/09/23 04:30:50;;;;;;;1.80;0.90;;;;;;;13.10;39.85;100606.88;10095965;29;20643;-82
2022/09/23 04:36:12;;;;;;;2.67;0.90;;;;;;;12.71;40.80;100604.53;10087611;29;20611;-84
2022/09/23 04:41:34;;;;;;;1.23;0.93;;;;;;;12.83;41.04;100587.66;10100040;29;20221;-84
2022/09/23 04:46:57;;;;;;;5.57;1.30;;;;;;;12.18;41.60;100591.88;10089821;29;20234;-81
2022/09/23 04:52:19;;;;;;;2.57;0.97;;;;;;;12.58;40.44;100581.00;10097597;29;20612;-85
2022/09/23 04:57:41;;;;;;;3.17;1.17;;;;;;;12.82;39.50;100574.66;10106279;29;20329;-81
2022/09/23 05:03:03;;;;;;;4.53;1.37;;;;;;;12.74;40.59;100579.25;10098056;29;20213;-84
2022/09/23 05:08:25;;;;;;;2.77;1.10;;;;;;;13.11;38.66;100563.28;10097560;29;20202;-84
2022/09/23 05:13:49;;;;;;;1.83;1.27;;;;;;;12.94;39.26;100569.06;10103210;29;20229;-85
2022/09/23 05:19:12;;;;;;;1.63;1.10;;;;;;;12.28;41.35;100571.69;10087900;29;20301;-80
2022/09/23 05:24:34;;;;;;;2.07;1.13;;;;;;;12.56;40.81;100572.88;10112950;29;20298;-83
2022/09/23 05:29:56;;;;;;;1.90;1.50;;;;;;;12.05;42.00;100584.44;10087461;29;20250;-83
2022/09/23 05:35:18;;;;;;;2.00;1.33;;;;;;;12.43;41.88;100579.59;10118096;29;20205;-83
2022/09/23 05:40:40;;;;;;;2.20;1.10;;;;;;;12.64;41.15;100588.94;10091619;29;20581;-84
2022/09/23 05:46:03;;;;;;;3.13;1.57;;;;;;;12.49;42.46;100585.91;10103429;29;20267;-84
2022/09/23 05:51:25;;;;;;;1.70;1.30;;;;;;;12.82;41.43;100583.16;10104637;29;20491;-84
2022/09/23 05:56:47;;;;;;;5.50;1.43;;;;;;;12.58;42.74;100598.81;10102590;29;20229;-83
2022/09/23 06:02:10;;;;;;;3.57;1.50;;;;;;;12.34;42.81;100592.94;10112325;29;20206;-83
2022/09/23 06:07:32;;;;;;;2.57;1.73;;;;;;;12.69;42.58;100588.75;10101229;29;20262;-83
2022/09/23 06:12:54;;;;;;;3.57;1.50;;;;;;;13.35;40.47;100580.38;10102168;29;20432;-83
2022/09/23 06:18:16;;;;;;;4.03;1.57;;;;;;;12.88;41.04;100584.63;10095882;29;20297;-85
2022/09/23 06:23:38;;;;;;;4.37;1.70;;;;;;;13.27;40.18;100575.63;10115303;29;20627;-84
2022/09/23 06:29:01;;;;;;;3.50;1.50;;;;;;;13.58;38.71;100568.63;10102469;29;20245;-83
2022/09/23 06:34:23;;;;;;;3.93;1.80;;;;;;;13.62;40.27;100586.59;10099253;29;20209;-83
2022/09/23 06:39:45;;;;;;;2.13;1.30;;;;;;;13.67;39.01;100577.88;10092710;29;20573;-83
2022/09/23 06:45:11;;;;;;;2.93;1.70;;;;;;;13.82;39.03;100585.66;10089858;29;20201;-83
2022/09/23 06:50:35;;;;;;;1.77;1.33;;;;;;;13.81;38.81;100577.56;10101159;29;20656;-83
2022/09/23 06:56:03;;;;;;;3.67;1.40;;;;;;;14.21;37.50;100583.38;10112499;29;20504;-83
2022/09/23 07:01:25;;;;;;;4.27;1.60;;;;;;;14.48;37.80;100585.47;10108368;29;20253;-84
2022/09/23 07:06:47;;;;;;;2.67;1.03;;;;;;;14.92;36.55;100566.63;10096751;29;20285;-83
2022/09/23 07:12:09;;;;;;;1.53;1.00;;;;;;;14.47;37.61;100572.47;10114487;29;20205;-83
2022/09/23 07:17:31;;;;;;;3.93;1.07;;;;;;;15.07;36.15;100573.56;10112542;29;20209;-82
2022/09/23 07:22:53;;;;;;;3.60;1.50;;;;;;;15.37;36.21;100582.56;10086070;29;20202;-83
2022/09/23 07:28:16;;;;;;;3.57;1.43;;;;;;;15.95;35.94;100580.09;10097569;29;20229;-85
2022/09/23 07:33:39;;;;;;;3.50;1.10;;;;;;;16.35;36.35;100571.38;10110353;29;20234;-83
2022/09/23 07:39:02;;;;;;;3.43;1.33;;;;;;;15.77;37.22;100579.59;10085783;29;20225;-83
2022/09/23 07:44:24;;;;;;;3.53;1.20;;;;;;;16.34;36.46;100569.72;10098869;29;20630;-82
2022/09/23 07:49:46;;;;;;;2.97;0.97;;;;;;;16.11;36.07;100575.22;10099145;29;20206;-83
2022/09/23 07:55:08;;;;;;;2.73;1.00;;;;;;;16.43;37.11;100576.03;10097651;29;20202;-83
2022/09/23 08:00:31;;;;;;;2.03;1.00;;;;;;;16.18;36.12;100578.25;10099329;29;20226;-83
2022/09/23 08:05:53;;;;;;;1.93;0.70;;;;;;;16.90;34.53;100576.75;10099697;29;20198;-82
2022/09/23 08:11:16;;;;;;;2.90;0.80;;;;;;;16.74;34.60;100584.50;10098425;29;20189;-85
2022/09/23 08:16:39;;;;;;;2.07;0.60;;;;;;;17.31;33.56;100585.78;10111995;29;20218;-84
2022/09/23 08:22:01;;;;;;;1.95;0.80;;;;;;;17.17;32.72;100574.91;10112061;29;20568;-83
2022/09/23 08:27:23;;;;;;;3.67;0.80;;;;;;;16.85;33.11;100579.88;10099308;29;20285;-82
2022/09/23 08:32:49;;;;;;;3.20;0.73;;;;;;;16.25;33.67;100577.66;10098728;29;20202;-83
2022/09/23 08:38:11;;;;;;;2.00;0.60;;;;;;;16.74;33.16;100578.81;10067156;29;20243;-82
2022/09/23 08:43:35;;;;;;;3.57;1.03;;;;;;;16.63;33.94;100572.06;10114258;29;20603;-82
2022/09/23 08:48:58;;;;;;;1.50;0.93;;;;;;;16.56;33.09;100580.41;10098735;29;20520;-82
2022/09/23 08:54:20;;;;;;;2.23;1.20;;;;;;;16.25;33.34;100578.47;10117482;29;20258;-82
2022/09/23 08:59:43;;;;;;;2.80;1.00;;;;;;;16.46;33.69;100572.47;10092830;29;20627;-82
2022/09/23 09:05:08;;;;;;;2.78;1.10;;;;;;;16.41;33.84;100573.56;10105594;29;20190;-82
2022/09/23 09:10:34;;;;;;;1.30;0.80;;;;;;;16.71;33.56;100570.19;10123585;29;20534;-81
2022/09/23 09:16:10;;;;;;;2.63;1.00;;;;;;;16.34;33.72;100569.72;10092531;29;20222;-82
2022/09/23 09:21:37;;;;;;;1.15;0.60;;;;;;;17.65;33.04;100563.25;10101086;29;20531;-82
2022/09/23 09:27:00;;;;;;;2.27;1.03;;;;;;;17.82;32.26;100560.75;10101961;29;20691;-81
2022/09/23 09:32:45;;;;;;;2.30;0.70;;;;;;;17.59;32.38;100554.97;10110241;29;20202;-82
2022/09/23 09:38:07;;;;;;;2.83;1.10;;;;;;;17.21;32.71;100566.44;10116707;29;20496;-82
2022/09/23 09:43:29;;;;;;;1.20;1.10;;;;;;;16.44;33.52;100566.31;10116751;29;20532;-82
2022/09/23 09:48:59;;;;;;;1.23;0.90;;;;;;;16.67;33.73;100555.88;10103544;29;20246;-81
2022/09/23 09:54:22;;;;;;;3.55;0.98;;;;;;;16.85;33.49;100562.81;10111961;29;20202;-81
2022/09/23 09:59:44;;;;;;;1.55;0.90;;;;;;;17.08;32.22;100557.22;10116261;29;20221;-82
2022/09/23 10:05:26;;;;;;;2.27;0.97;;;;;;;16.91;32.65;100549.94;10107633;29;20266;-82
2022/09/23 10:10:57;;;;;;;4.47;1.10;;;;;;;18.22;31.49;100540.25;10084968;29;20206;-81
2022/09/23 10:16:19;;;;;;;1.20;0.82;;;;;;;16.90;32.68;100547.44;10106642;29;20293;-83
2022/09/23 10:21:42;;;;;;;2.33;1.10;;;;;;;18.25;31.83;100535.78;10076647;29;20528;-82
2022/09/23 10:27:10;;;;;;;3.45;1.02;;;;;;;18.05;31.39;100540.78;10083810;29;20313;-81
2022/09/23 10:32:36;;;;;;;5.30;0.93;;;;;;;18.02;30.92;100524.41;10126327;29;20261;-81
2022/09/23 10:37:59;;;;;;;6.30;1.13;;;;;;;16.75;33.54;100534.94;10124577;29;20495;-81
2022/09/23 10:49:49;;;;;;;3.40;0.98;;;;;;;17.93;31.63;100521.00;10129217;29;20193;-81
2022/09/23 10:55:30;;;;;;;1.35;0.70;;;;;;;17.68;32.08;100522.59;10093512;29;20221;-81
2022/09/23 11:01:13;;;;;;;1.40;1.10;;;;;;;17.80;32.18;100514.69;10101496;29;20218;-81
2022/09/23 11:07:06;;;;;;;1.13;0.73;;;;;;;17.78;32.14;100507.72;10114420;29;20193;-81
2022/09/23 11:12:46;;;;;;;1.90;0.82;;;;;;;18.06;31.78;100505.34;10113323;29;20197;-84
2022/09/23 11:18:28;;;;;;;2.58;1.10;;;;;;;18.41;32.26;100505.09;10100531;29;20226;-82
2022/09/23 11:24:06;;;;;;;2.47;1.00;;;;;;;18.65;30.76;100492.38;10116405;29;20534;-82
2022/09/23 11:29:35;;;;;;;4.30;1.30;;;;;;;18.57;31.15;100491.47;10100945;29;20580;-81
2022/09/23 11:35:11;;;;;;;1.88;0.80;;;;;;;17.80;31.82;100480.47;10110545;29;20202;-81
2022/09/23 11:40:36;;;;;;;4.03;1.10;;;;;;;20.07;29.09;100473.91;10098337;29;20362;-81
2022/09/23 11:46:30;;;;;;;2.22;0.75;;;;;;;19.78;29.06;100472.06;10074276;29;20251;-81
2022/09/23 11:52:04;;;;;;;3.70;0.90;;;;;;;18.16;31.27;100473.31;10087086;29;20239;-81
2022/09/23 11:57:34;;;;;;;4.43;0.88;;;;;;;18.65;30.49;100467.50;10087934;29;20259;-85
2022/09/23 12:03:25;;;;;;;1.35;0.90;;;;;;;17.44;31.49;100461.91;10100333;29;20273;-84
2022/09/23 12:08:52;;;;;;;1.38;0.77;;;;;;;18.57;30.28;100460.06;10131757;29;20477;-83
2022/09/23 12:14:28;;;;;;;2.53;0.90;;;;;;;20.22;28.76;100447.06;10108160;29;20226;-81
2022/09/23 12:20:28;;;;;;;1.85;0.60;;;;;;;19.27;28.91;100449.88;10089777;29;20638;-80
2022/09/23 12:25:53;;;;;;;2.83;0.75;;;;;;;18.84;29.64;100451.41;10100849;29;20559;-80
2022/09/23 12:31:17;;;;;;;0.95;0.60;;;;;;;19.09;29.22;100444.00;10112451;29;20202;-80
2022/09/23 12:36:41;;;;;;;1.85;0.90;;;;;;;19.06;29.34;100432.53;10121115;29;20196;-80
2022/09/23 12:42:05;;;;;;;3.83;0.60;;;;;;;20.04;28.58;100426.09;10124214;29;20228;-80
2022/09/23 12:47:28;;;;;;;0.68;0.60;;;;;;;20.62;28.13;100425.19;10121604;29;20496;-80
2022/09/23 12:52:50;;;;;;;3.50;0.65;;;;;;;20.46;26.67;100416.94;10118876;29;20269;-80
2022/09/23 12:58:39;;;;;;;3.22;0.70;;;;;;;19.34;28.66;100418.53;10117384;29;20532;-82
2022/09/23 13:09:47;;;;;;;3.85;0.80;;;;;;;19.06;27.89;100409.66;10137231;29;20557;-81
2022/09/23 13:15:16;;;;;;;0.80;0.35;;;;;;;18.97;27.28;100401.41;10120736;29;20280;-81
2022/09/23 13:20:39;;;;;;;1.80;0.50;;;;;;;19.82;27.66;100398.53;10132089;29;20241;-81
2022/09/23 13:26:08;;;;;;;0.90;0.68;;;;;;;19.34;29.00;100402.19;10139752;29;20225;-81
2022/09/23 13:31:30;;;;;;;1.00;0.63;;;;;;;19.41;29.28;100384.28;10108243;29;20222;-81
2022/09/23 13:36:52;;;;;;;2.70;0.50;;;;;;;19.07;27.55;100385.59;10121286;29;20201;-81
2022/09/23 13:42:34;;;;;;;1.48;0.52;;;;;;;19.60;27.50;100381.22;10132610;29;20245;-81
2022/09/23 13:48:14;;;;;;;1.95;0.50;;;;;;;18.95;27.34;100390.38;10128081;29;20559;-81
2022/09/23 13:53:37;;;;;;;2.42;0.50;;;;;;;19.37;29.59;100386.31;10131349;29;20600;-81
2022/09/23 13:59:22;;;;;;;1.65;0.70;;;;;;;19.66;26.97;100382.47;10126440;29;20618;-81
2022/09/23 14:04:45;;;;;;;3.87;0.50;;;;;;;19.49;27.70;100377.44;10132243;29;20499;-81
2022/09/23 14:10:07;;;;;;;3.20;0.80;;;;;;;18.31;27.70;100386.75;10136692;29;20261;-80
2022/09/23 14:15:29;;;;;;;4.28;0.85;;;;;;;18.37;28.33;100387.19;10136135;29;20695;-80
2022/09/23 14:20:51;;;;;;;3.20;0.70;;;;;;;19.22;27.98;100370.25;10128777;29;20217;-85
2022/09/23 14:26:14;;;;;;;2.13;1.20;;;;;;;17.94;29.65;100386.59;10118511;29;20277;-81
2022/09/23 14:31:36;;;;;;;2.95;0.93;;;;;;;18.10;29.16;100377.00;10113288;29;20607;-84
2022/09/23 14:42:59;;;;;;;1.35;0.85;;;;;;;18.72;28.32;100364.00;10111099;29;20209;-83
2022/09/23 14:48:30;;;;;;;4.10;1.23;;;;;;;18.53;29.32;100361.31;10107598;29;20257;-84
2022/09/23 14:53:52;;;;;;;2.47;1.00;;;;;;;19.49;28.61;100354.56;10088183;29;20198;-84
2022/09/23 14:59:30;;;;;;;2.72;1.35;;;;;;;19.14;28.55;100351.38;10066073;29;20258;-80
2022/09/23 15:05:07;;;;;;;2.58;1.55;;;;;;;17.88;30.21;100358.78;10094854;29;20277;-81
2022/09/23 15:10:32;;;;;;;4.55;2.25;;;;;;;17.16;31.31;100355.97;10099561;29;20683;-83
2022/09/23 15:15:55;;;;;;;4.22;1.90;;;;;;;18.25;29.67;100350.31;10089665;29;20296;-85
2022/09/23 15:21:20;;;;;;;3.13;1.63;;;;;;;18.38;29.44;100348.91;10078982;29;20721;-81
2022/09/23 15:26:51;;;;;;;7.22;2.10;;;;;;;18.24;30.15;100349.50;10070431;29;20332;-82
2022/09/23 15:32:13;;;;;;;2.53;1.58;;;;;;;17.85;30.91;100354.66;10074334;29;20230;-81
2022/09/23 15:37:35;;;;;;;6.23;1.33;;;;;;;18.56;30.78;100349.94;10099739;29;20210;-80
2022/09/23 15:43:00;;;;;;;2.63;1.23;;;;;;;17.96;30.98;100349.97;10093275;29;20257;-82
2022/09/23 15:48:30;;;;;;;3.33;1.53;;;;;;;18.37;30.28;100358.66;10102801;29;20234;-87
2022/09/23 15:53:54;;;;;;;4.20;1.50;;;;;;;18.12;30.85;100348.94;10105020;29;20210;-82
2022/09/23 15:59:16;;;;;;;3.93;1.90;;;;;;;18.82;30.79;100339.63;10097555;29;20241;-77
2022/09/23 16:04:37;;;;;;;2.30;1.15;;;;;;;18.25;31.23;100345.44;10090248;29;20276;-82
2022/09/23 16:09:59;;;;;;;3.47;1.52;;;;;;;18.30;31.01;100339.44;10090094;29;20604;-85
2022/09/23 16:15:23;;;;;;;2.03;1.38;;;;;;;18.93;30.67;100329.16;10076148;29;20229;-82
2022/09/23 16:20:46;;;;;;;4.63;2.28;;;;;;;18.58;31.49;100333.25;10102905;29;20260;-85
2022/09/23 16:26:23;;;;;;;4.90;2.15;;;;;;;18.54;31.80;100340.13;10084260;29;20673;-82
2022/09/23 16:31:45;;;;;;;6.53;1.77;;;;;;;18.41;31.67;100341.59;10092219;29;20237;-80
2022/09/23 16:37:11;;;;;;;3.88;1.83;;;;;;;18.66;31.59;100334.97;10101351;29;20236;-82
2022/09/23 16:42:33;;;;;;;6.30;2.25;;;;;;;18.44;32.49;100330.22;10071106;29;20309;-85
2022/09/23 16:47:56;;;;;;;4.35;1.85;;;;;;;18.36;32.96;100339.91;10083419;29;20282;-79
2022/09/23 16:53:18;;;;;;;5.47;2.85;;;;;;;18.65;32.88;100346.78;10093396;29;20210;-84
2022/09/23 16:58:40;;;;;;;7.13;2.53;;;;;;;18.53;34.43;100349.91;10066585;29;20296;-85
2022/09/23 17:04:02;;;;;;;6.00;2.72;;;;;;;18.20;34.68;100348.66;10086579;29;20253;-83
2022/09/23 17:09:29;;;;;;;5.88;2.65;;;;;;;18.32;35.31;100341.91;10095991;29;20622;-85
2022/09/23 17:14:51;;;;;;;8.23;3.15;;;;;;;18.36;34.88;100353.34;10091097;29;20253;-79
2022/09/23 17:20:13;;;;;;;7.13;2.63;;;;;;;18.29;34.87;100346.34;10109436;29;20256;-84
2022/09/23 17:25:35;;;;;;;7.22;2.58;;;;;;;17.74;35.97;100350.03;10094185;29;20614;-82
2022/09/23 17:30:59;;;;;;;8.18;4.63;;;;;;;18.25;37.64;100338.91;10107483;29;20230;-82
2022/09/23 17:36:21;;;;;;;10.03;3.57;;;;;;;18.07;36.46;100337.88;10091489;29;20253;-85
2022/09/23 17:41:44;;;;;;;5.68;2.83;;;;;;;18.21;37.61;100336.03;10080140;29;20250;-82
2022/09/23 17:47:06;;;;;;;4.07;1.73;;;;;;;18.10;37.18;100337.91;10082442;29;20266;-83
2022/09/23 17:52:28;;;;;;;6.68;2.33;;;;;;;17.94;37.25;100323.03;10094970;29;20233;-81
2022/09/23 17:57:50;;;;;;;15.57;10.65;;;;;;;17.85;38.06;100320.44;10092418;29;20278;-86
2022/09/23 18:03:13;;;;;;;5.63;3.67;;;;;;;17.92;38.43;100316.91;10113809;29;20261;-88
2022/09/23 18:08:36;;;;;;;6.43;3.87;;;;;;;17.90;38.60;100313.59;10078994;29;20270;-83
2022/09/23 18:14:00;;;;;;;4.03;2.93;;;;;;;17.74;37.79;100305.22;10108696;29;20714;-83
2022/09/23 18:19:25;;;;;;;5.30;3.70;;;;;;;17.60;39.10;100308.66;10098280;29;20230;-82
2022/09/23 18:24:47;;;;;;;9.50;3.30;;;;;;;17.79;38.65;100309.78;10092774;29;20309;-81
2022/09/23 18:30:10;;;;;;;7.30;4.90;;;;;;;17.44;37.34;100316.56;10075791;29;20226;-80
2022/09/23 18:35:32;;;;;;;5.78;3.78;;;;;;;16.85;36.75;100312.28;10067369;29;20294;-82
2022/09/23 18:40:56;;;;;;;9.45;6.28;;;;;;;17.01;36.31;100314.22;10075258;29;20313;-80
2022/09/23 18:46:20;;;;;;;10.23;7.83;;;;;;;17.78;35.53;100313.84;10082064;29;20234;-81
2022/09/23 18:51:51;;;;;;;8.13;6.45;;;;;;;17.30;35.59;100309.81;10083821;29;20222;-81
2022/09/23 18:57:13;;;;;;;9.07;7.40;;;;;;;17.50;35.48;100305.66;10076864;29;20238;-81
2022/09/23 19:02:35;;;;;;;4.93;4.43;;;;;;;17.19;35.71;100318.16;10085815;29;20300;-84
2022/09/23 19:07:57;;;;;;;6.60;4.55;;;;;;;17.43;35.16;100314.94;10046800;29;20298;-78
2022/09/23 19:13:20;;;;;;;3.90;2.93;;;;;;;17.28;35.47;100310.19;10065662;29;20290;-84
2022/09/23 19:18:46;;;;;;;6.03;2.92;;;;;;;17.25;38.71;100320.34;10055117;29;20557;-81
2022/09/23 19:24:13;;;;;;;9.82;3.65;;;;;;;17.09;36.90;100321.66;10062642;29;20314;-79
2022/09/23 19:29:36;;;;;;;11.87;5.60;;;;;;;16.62;36.55;100317.13;10073780;29;20290;-80
2022/09/23 19:34:58;;;;;;;7.53;3.80;;;;;;;17.04;36.38;100322.00;10077229;29;20251;-79
2022/09/23 19:40:20;;;;;;;5.05;3.28;;;;;;;17.23;35.65;100319.88;10081041;29;20302;-79
2022/09/23 19:45:43;;;;;;;5.60;2.75;;;;;;;16.39;36.79;100319.13;10076176;29;20282;-81
2022/09/23 19:51:05;;;;;;;5.17;2.90;;;;;;;17.00;36.01;100306.88;10062771;29;20251;-79
2022/09/23 19:56:28;;;;;;;5.13;2.70;;;;;;;16.69;36.39;100313.59;10066136;29;20229;-80
2022/09/23 20:01:50;;;;;;;3.53;3.22;;;;;;;16.89;36.26;100312.34;10073968;29;20310;-80
2022/09/23 20:07:13;;;;;;;5.90;2.90;;;;;;;17.83;34.16;100304.97;10068717;29;20754;-80
2022/09/23 20:12:36;;;;;;;6.97;3.83;;;;;;;17.57;34.81;100305.78;10080815;29;20242;-80
2022/09/23 20:17:58;;;;;;;4.87;3.27;;;;;;;17.61;33.88;100301.78;10073832;29;20287;-80
2022/09/23 20:23:20;;;;;;;4.97;3.05;;;;;;;17.16;35.19;100293.31;10071773;29;20654;-80
2022/09/23 20:28:42;;;;;;;4.88;3.10;;;;;;;17.41;34.98;100296.56;10058019;29;20274;-80
2022/09/23 20:34:05;;;;;;;5.60;2.40;;;;;;;17.42;35.25;100293.34;10096858;29;20679;-81
2022/09/23 20:39:28;;;;;;;6.25;2.80;;;;;;;16.67;35.97;100288.34;10087475;29;20213;-79
2022/09/23 20:44:50;;;;;;;5.30;2.08;;;;;;;17.06;34.61;100293.94;10097436;29;20864;-80
2022/09/23 20:50:12;;;;;;;3.97;2.58;;;;;;;17.10;35.20;100289.13;10102732;29;20225;-79
2022/09/23 20:55:34;;;;;;;7.00;3.13;;;;;;;17.71;33.58;100285.22;10103935;29;20229;-82
2022/09/23 21:01:01;;;;;;;5.47;2.92;;;;;;;17.21;34.59;100287.28;10109341;29;20257;-80
2022/09/23 21:06:24;;;;;;;4.53;2.23;;;;;;;16.87;35.40;100287.09;10104828;29;20221;-79
2022/09/23 21:11:46;;;;;;;6.32;2.67;;;;;;;17.23;35.13;100284.88;10095240;29;20230;-79
2022/09/23 21:17:09;;;;;;;3.65;2.00;;;;;;;17.23;35.41;100270.63;10097169;29;20627;-79
2022/09/23 21:22:31;;;;;;;4.27;2.40;;;;;;;17.17;36.01;100277.88;10100792;29;20313;-81
2022/09/23 21:27:53;;;;;;;9.65;2.70;;;;;;;16.95;37.60;100270.16;10114639;29;20197;-81
2022/09/23 21:33:17;;;;;;;6.10;2.83;;;;;;;17.28;37.16;100273.16;10105080;29;20234;-81
2022/09/23 21:38:39;;;;;;;5.43;2.88;;;;;;;17.04;37.90;100271.56;10119945;29;20278;-81
2022/09/23 21:44:03;;;;;;;6.90;2.50;;;;;;;16.91;37.79;100282.31;10112505;29;20250;-81
2022/09/23 21:49:25;;;;;;;6.27;2.70;;;;;;;17.13;36.92;100271.28;10132086;29;20278;-81
2022/09/23 21:54:47;;;;;;;4.93;2.50;;;;;;;17.53;36.18;100268.66;10117026;29;20190;-81
2022/09/23 22:00:10;;;;;;;4.47;2.60;;;;;;;17.06;37.56;100268.31;10124171;29;20249;-81
2022/09/23 22:05:32;;;;;;;3.55;2.42;;;;;;;16.74;37.43;100273.44;10139327;29;20205;-81
2022/09/23 22:10:54;;;;;;;4.40;2.42;;;;;;;16.57;37.72;100266.22;10132714;29;20261;-81
2022/09/23 22:16:17;;;;;;;6.65;2.78;;;;;;;17.35;37.48;100264.72;10117650;29;20855;-81
2022/09/23 22:21:41;;;;;;;4.50;2.63;;;;;;;16.38;40.12;100263.44;10098776;29;20245;-81
2022/09/23 22:27:06;;;;;;;4.75;2.60;;;;;;;16.70;39.31;100267.69;10076906;29;20278;-81
2022/09/23 22:32:40;;;;;;;5.53;2.80;;;;;;;17.02;38.41;100261.75;10092415;29;20210;-82
2022/09/23 22:38:02;;;;;;;4.30;2.40;;;;;;;17.06;38.54;100259.78;10094567;29;20194;-81
2022/09/23 22:43:24;;;;;;;2.93;2.57;;;;;;;16.41;39.02;100256.97;10100669;29;20250;-82
2022/09/23 22:48:52;;;;;;;6.37;2.87;;;;;;;15.86;40.46;100257.09;10100717;29;20238;-81
2022/09/23 22:54:14;;;;;;;6.83;3.00;;;;;;;15.79;39.68;100256.09;10099295;29;20258;-81
2022/09/23 22:59:36;;;;;;;7.73;3.13;;;;;;;15.50;40.19;100246.94;10098836;29;20214;-81
2022/09/23 23:04:59;;;;;;;8.73;3.40;;;;;;;15.37;40.18;100247.44;10095454;29;20285;-81
2022/09/23 23:10:23;;;;;;;7.47;3.63;;;;;;;15.41;40.33;100249.13;10114288;29;20270;-81
2022/09/23 23:15:45;;;;;;;5.30;3.13;;;;;;;15.43;40.56;100248.78;10100518;29;20217;-82
2022/09/23 23:21:16;;;;;;;8.13;3.30;;;;;;;15.28;40.77;100244.78;10103554;29;20218;-81
2022/09/23 23:26:38;;;;;;;4.27;3.10;;;;;;;15.55;40.33;100239.31;10112275;29;20238;-81
2022/09/23 23:32:01;;;;;;;5.03;3.37;;;;;;;15.19;40.81;100241.31;10098036;29;20714;-81
2022/09/23 23:37:23;;;;;;;5.93;3.27;;;;;;;15.02;41.32;100236.03;10100042;29;20634;-81
2022/09/23 23:42:45;;;;;;;7.33;4.40;;;;;;;15.13;40.90;100231.44;10112111;29;20206;-81
2022/09/23 23:48:07;;;;;;;5.07;3.73;;;;;;;15.51;40.38;100231.53;10107858;29;20226;-81
2022/09/23 23:53:34;;;;;;;5.63;3.90;;;;;;;15.95;39.57;100227.59;10091338;29;20209;-82
2022/09/23 23:58:58;;;;;;;8.67;3.93;;;;;;;16.48;40.82;100222.97;10085271;29;20202;-81
